Time;durP1;ratioP1;P1;durP2;ratioP2;P2;SDS_P1;SDS_P2;PMS_P1;PMS_P2;Temp;Humidity;BMP_temperature;BMP_pressure;BME280_temperature;BME280_humidity;BME280_pressure;Samples;Min_cycle;Max_cycle;Signal;HPM_P1;HPM_P2
2023/09/04 00:00:55;;;;;;;11.55;7.22;;;;;;;13.13;92.99;102822.19;4990667;28;20444;-80
2023/09/04 00:03:22;;;;;;;11.23;6.60;;;;;;;13.12;93.35;102820.56;5022232;28;20041;-83
2023/09/04 00:05:48;;;;;;;10.65;7.00;;;;;;;13.12;93.95;102820.56;5004112;28;20495;-79
2023/09/04 00:08:14;;;;;;;7.82;6.20;;;;;;;13.11;93.84;102817.06;5018814;28;20038;-82
2023/09/04 00:10:40;;;;;;;;;;;;;;;13.14;93.86;102818.47;4989633;28;20073;-85
2023/09/04 00:13:05;;;;;;;8.27;5.13;;;;;;;13.12;94.22;102816.00;5020411;28;19956;-81
2023/09/04 00:15:31;;;;;;;;;;;;;;;13.13;94.25;102822.19;5025149;28;20033;-81
2023/09/04 00:17:57;;;;;;;7.80;4.85;;;;;;;13.09;93.81;102815.66;5022289;28;19924;-81
2023/09/04 00:20:24;;;;;;;7.40;5.53;;;;;;;13.08;93.84;102814.03;5009844;28;20030;-81
2023/09/04 00:22:50;;;;;;;8.13;5.13;;;;;;;13.05;93.88;102814.50;5004934;28;20403;-78
2023/09/04 00:25:16;;;;;;;;;;;;;;;13.02;93.58;102813.09;4995393;28;20087;-80
2023/09/04 00:27:42;;;;;;;5.63;4.25;;;;;;;12.97;93.08;102812.16;5023521;28;19913;-81
2023/09/04 00:30:08;;;;;;;6.55;4.93;;;;;;;12.95;93.01;102814.28;5006522;28;20072;-81
2023/09/04 00:32:34;;;;;;;7.53;4.70;;;;;;;12.93;92.60;102808.28;4990648;28;20088;-80
2023/09/04 00:34:59;;;;;;;6.13;3.63;;;;;;;12.94;92.30;102815.31;5018832;28;20511;-84
2023/09/04 00:37:25;;;;;;;5.07;3.55;;;;;;;12.95;91.86;102816.97;5019905;28;20128;-79
2023/09/04 00:39:51;;;;;;;5.47;4.07;;;;;;;12.93;91.90;102816.38;4990397;28;20045;-79
2023/09/04 00:42:16;;;;;;;5.05;4.20;;;;;;;12.90;92.12;102817.66;4990218;28;20037;-82
2023/09/04 00:44:47;;;;;;;5.40;3.90;;;;;;;12.83;92.15;102815.09;4992933;28;20107;-81
2023/09/04 00:47:14;;;;;;;5.53;3.53;;;;;;;12.78;92.36;102820.34;4992851;28;20847;-81
2023/09/04 00:49:41;;;;;;;6.70;4.60;;;;;;;12.72;92.40;102820.47;5020237;28;20776;-80
2023/09/04 00:52:10;;;;;;;4.40;3.55;;;;;;;12.67;92.20;102815.81;5023606;28;20073;-80
2023/09/04 00:54:37;;;;;;;5.32;3.70;;;;;;;12.68;91.66;102811.25;5025550;28;20033;-81
2023/09/04 00:57:09;;;;;;;5.90;3.60;;;;;;;12.63;91.55;102816.50;5007877;28;20129;-79
2023/09/04 00:59:35;;;;;;;4.80;4.25;;;;;;;12.61;91.89;102824.78;5006262;28;20044;-81
2023/09/04 01:02:01;;;;;;;4.50;3.65;;;;;;;12.57;91.59;102821.75;5001547;28;20045;-75
2023/09/04 01:04:28;;;;;;;5.95;4.60;;;;;;;12.54;91.67;102827.59;5020216;28;20033;-78
2023/09/04 01:06:54;;;;;;;5.07;3.88;;;;;;;12.48;91.54;102819.63;5007612;28;20376;-79
2023/09/04 01:09:21;;;;;;;4.90;3.72;;;;;;;12.44;91.60;102830.00;5001950;28;20491;-79
2023/09/04 01:11:51;;;;;;;7.38;3.80;;;;;;;12.42;91.78;102823.25;4998722;28;20060;-77
2023/09/04 01:14:19;;;;;;;4.82;3.70;;;;;;;12.39;91.66;102819.13;4981291;28;20037;-79
2023/09/04 01:16:46;;;;;;;4.80;3.47;;;;;;;12.37;91.75;102821.25;4986547;28;20030;-78
2023/09/04 01:19:12;;;;;;;5.03;4.03;;;;;;;12.37;91.76;102823.09;4987098;28;20148;-80
2023/09/04 01:21:39;;;;;;;7.60;4.32;;;;;;;12.35;91.86;102825.22;5014717;28;20029;-80
2023/09/04 01:24:08;;;;;;;4.70;3.50;;;;;;;12.32;91.65;102831.03;5004566;28;20079;-80
2023/09/04 01:26:43;;;;;;;6.68;4.30;;;;;;;12.28;91.81;102833.38;4999964;28;20061;-78
2023/09/04 01:29:24;;;;;;;6.68;3.80;;;;;;;12.24;92.14;102829.50;5007730;28;20037;-81
2023/09/04 01:31:56;;;;;;;4.57;3.45;;;;;;;12.20;91.89;102834.53;4996798;28;20026;-81
2023/09/04 01:34:27;;;;;;;5.40;3.67;;;;;;;12.20;91.89;102839.09;4997403;28;20037;-80
2023/09/04 01:36:57;;;;;;;5.40;4.30;;;;;;;12.19;91.91;102832.06;5004808;28;20034;-80
2023/09/04 01:39:23;;;;;;;5.25;4.30;;;;;;;12.21;92.02;102836.16;5007652;28;20159;-80
2023/09/04 01:41:50;;;;;;;4.65;3.60;;;;;;;12.17;91.67;102829.59;5014175;28;20092;-79
2023/09/04 01:44:15;;;;;;;5.32;3.83;;;;;;;12.15;91.81;102831.69;5008584;28;20057;-81
2023/09/04 01:46:41;;;;;;;11.45;4.50;;;;;;;12.16;91.78;102827.16;4982894;28;20065;-78
2023/09/04 01:49:10;;;;;;;5.68;4.10;;;;;;;12.12;91.59;102826.78;5020708;28;20045;-78
2023/09/04 01:51:36;;;;;;;4.93;4.28;;;;;;;12.12;91.74;102834.00;5002607;28;20730;-78
2023/09/04 01:54:02;;;;;;;4.72;4.15;;;;;;;12.10;92.12;102823.50;5013151;28;20074;-79
2023/09/04 01:56:27;;;;;;;4.70;4.13;;;;;;;12.13;92.46;102823.06;4995240;28;20041;-79
2023/09/04 01:58:53;;;;;;;;;;;;;;;12.15;92.67;102823.66;5012553;28;20041;-79
2023/09/04 02:01:18;;;;;;;5.53;3.95;;;;;;;12.14;92.79;102822.00;4985103;28;20286;-79
2023/09/04 02:03:47;;;;;;;5.53;4.20;;;;;;;12.15;92.78;102815.59;5014607;28;20040;-79
2023/09/04 02:06:12;;;;;;;5.63;4.40;;;;;;;12.14;92.88;102813.13;5001307;28;20048;-78
2023/09/04 02:08:39;;;;;;;4.90;4.40;;;;;;;12.12;93.23;102807.97;5017030;28;20033;-79
2023/09/04 02:11:05;;;;;;;5.63;4.05;;;;;;;12.11;93.14;102803.66;5002499;28;20124;-78
2023/09/04 02:13:30;;;;;;;5.35;4.45;;;;;;;12.11;92.97;102818.94;5000991;28;20156;-77
2023/09/04 02:15:56;;;;;;;;;;;;;;;12.10;92.94;102804.69;4989778;28;20052;-77
2023/09/04 02:18:22;;;;;;;5.60;3.72;;;;;;;12.07;92.79;102804.34;5003340;28;20862;-77
2023/09/04 02:20:47;;;;;;;5.55;4.45;;;;;;;12.06;92.70;102811.59;5002528;28;20034;-80
2023/09/04 02:23:13;;;;;;;;;;;;;;;12.06;93.11;102802.69;5008543;28;20038;-77
2023/09/04 02:25:39;;;;;;;5.82;4.65;;;;;;;12.02;92.79;102808.53;4998242;28;20664;-77
2023/09/04 02:28:04;;;;;;;5.40;4.90;;;;;;;11.99;92.76;102806.31;4997471;28;20083;-77
2023/09/04 02:30:30;;;;;;;4.78;4.18;;;;;;;11.93;92.55;102806.41;4994242;28;20117;-78
2023/09/04 02:32:58;;;;;;;;;;;;;;;11.90;92.72;102806.84;5000864;28;20076;-77
2023/09/04 02:35:25;;;;;;;5.50;4.13;;;;;;;11.86;93.02;102803.00;5004706;28;19917;-79
2023/09/04 02:37:52;;;;;;;6.95;4.78;;;;;;;11.82;92.91;102804.50;4997752;28;20108;-79
2023/09/04 02:40:17;;;;;;;4.97;4.47;;;;;;;11.80;92.79;102801.19;4999670;28;20112;-77
2023/09/04 02:42:43;;;;;;;5.07;4.43;;;;;;;11.77;92.33;102805.97;5013882;28;20505;-80
2023/09/04 02:45:09;;;;;;;5.53;4.53;;;;;;;11.75;92.79;102800.00;4997359;28;20041;-78
2023/09/04 02:47:37;;;;;;;6.50;5.13;;;;;;;11.72;92.77;102795.09;5002266;28;20130;-77
2023/09/04 02:50:05;;;;;;;4.85;4.15;;;;;;;11.70;92.74;102793.66;5009724;28;20060;-77
2023/09/04 02:52:31;;;;;;;6.43;4.45;;;;;;;11.70;92.84;102794.50;5008304;28;20075;-78
2023/09/04 02:54:57;;;;;;;6.60;4.13;;;;;;;11.70;92.85;102794.50;5020426;28;20034;-78
2023/09/04 02:57:23;;;;;;;5.38;4.38;;;;;;;11.68;92.77;102793.09;5010481;28;20042;-78
2023/09/04 02:59:50;;;;;;;5.57;3.95;;;;;;;11.67;92.49;102789.59;4996255;28;20033;-77
2023/09/04 03:02:17;;;;;;;5.45;4.35;;;;;;;11.64;92.82;102786.53;5022617;28;20497;-77
2023/09/04 03:04:43;;;;;;;6.13;5.00;;;;;;;11.60;92.41;102790.72;4993609;28;20567;-79
2023/09/04 03:07:09;;;;;;;5.07;3.83;;;;;;;11.59;92.46;102795.28;5001549;28;20041;-79
2023/09/04 03:09:34;;;;;;;4.97;4.40;;;;;;;11.58;91.97;102788.25;4975838;28;20129;-79
2023/09/04 03:12:00;;;;;;;6.15;3.85;;;;;;;11.55;92.21;102786.03;5012126;28;20488;-77
2023/09/04 03:14:26;;;;;;;4.78;3.60;;;;;;;11.54;92.23;102788.94;5003784;28;20083;-77
2023/09/04 03:16:52;;;;;;;7.25;3.97;;;;;;;11.53;92.17;102795.34;5020090;28;20600;-78
2023/09/04 03:19:18;;;;;;;4.20;3.80;;;;;;;11.50;91.86;102791.25;5000937;28;20061;-80
2023/09/04 03:21:44;;;;;;;5.53;5.03;;;;;;;11.51;91.96;102792.88;5014388;28;20038;-78
2023/09/04 03:24:10;;;;;;;5.53;3.97;;;;;;;11.50;92.56;102791.25;5002924;28;20042;-78
2023/09/04 03:26:37;;;;;;;;;;;;;;;11.48;92.97;102787.97;4963169;23;20428;-76
2023/09/04 03:29:04;;;;;;;6.22;4.60;;;;;;;11.45;93.25;102783.06;4957921;28;19922;-78
2023/09/04 03:31:29;;;;;;;6.53;5.28;;;;;;;11.44;93.10;102776.88;4925673;28;20028;-76
2023/09/04 03:33:55;;;;;;;6.22;4.90;;;;;;;11.44;93.07;102778.72;4921403;28;20084;-76
2023/09/04 03:36:21;;;;;;;7.57;5.43;;;;;;;11.42;93.15;102778.16;4921213;28;20129;-76
2023/09/04 03:38:47;;;;;;;7.53;6.25;;;;;;;11.40;93.33;102780.25;4922178;28;20047;-76
2023/09/04 03:41:13;;;;;;;6.75;5.10;;;;;;;11.38;93.12;102779.63;4910820;28;20050;-74
2023/09/04 03:43:39;;;;;;;6.50;4.72;;;;;;;11.37;93.09;102786.03;4925244;28;20035;-75
2023/09/04 03:46:11;;;;;;;7.22;4.82;;;;;;;11.35;93.01;102788.13;4925962;28;20508;-76
2023/09/04 03:48:37;;;;;;;6.80;6.10;;;;;;;11.34;93.23;102797.22;4922902;28;20043;-75
2023/09/04 03:51:04;;;;;;;6.28;5.10;;;;;;;11.31;92.50;102793.16;4905075;28;20039;-77
2023/09/04 03:53:29;;;;;;;6.38;4.88;;;;;;;11.31;92.75;102797.66;4926096;28;20081;-76
2023/09/04 03:56:05;;;;;;;9.05;4.78;;;;;;;11.31;92.89;102795.84;4923543;28;20089;-76
2023/09/04 03:58:32;;;;;;;5.75;4.70;;;;;;;11.33;93.12;102791.06;4932465;28;20134;-76
2023/09/04 04:00:58;;;;;;;7.07;5.55;;;;;;;11.34;92.88;102799.91;4904418;28;20201;-75
2023/09/04 04:03:25;;;;;;;6.20;4.78;;;;;;;11.33;92.19;102788.38;4916997;28;20126;-76
2023/09/04 04:05:51;;;;;;;;;;;;;;;11.32;92.49;102805.50;4946600;28;20041;-76
2023/09/04 04:08:17;;;;;;;7.22;5.07;;;;;;;11.28;92.28;102793.59;4932751;28;19915;-76
2023/09/04 04:10:44;;;;;;;5.97;5.38;;;;;;;11.28;92.47;102798.13;4924071;28;20050;-75
2023/09/04 04:13:10;;;;;;;6.43;5.32;;;;;;;11.26;92.64;102795.69;4927609;28;20035;-77
2023/09/04 04:15:38;;;;;;;5.65;4.38;;;;;;;11.26;92.71;102797.53;4933873;28;20030;-76
2023/09/04 04:18:05;;;;;;;9.93;6.15;;;;;;;11.24;93.11;102794.25;4928403;28;20043;-75
2023/09/04 04:20:31;;;;;;;6.40;5.50;;;;;;;11.19;93.12;102794.94;4926805;28;20411;-77
2023/09/04 04:22:57;;;;;;;6.65;5.95;;;;;;;11.14;92.91;102803.63;4912967;28;20065;-77
2023/09/04 04:25:23;;;;;;;8.73;5.57;;;;;;;11.15;92.72;102807.13;4945423;28;20794;-76
2023/09/04 04:27:49;;;;;;;10.00;5.57;;;;;;;11.13;93.06;102801.19;4913280;28;20042;-76
2023/09/04 04:30:15;;;;;;;7.65;5.32;;;;;;;11.14;92.40;102803.63;4916386;28;20040;-75
2023/09/04 04:32:40;;;;;;;9.18;5.25;;;;;;;11.11;92.12;102801.41;4915503;28;20077;-75
2023/09/04 04:35:07;;;;;;;6.20;5.60;;;;;;;11.09;92.29;102800.78;4923879;28;20059;-75
2023/09/04 04:37:35;;;;;;;6.38;5.15;;;;;;;11.08;92.62;102804.53;4925221;28;20035;-77
2023/09/04 04:40:03;;;;;;;6.43;5.60;;;;;;;11.06;92.73;102806.63;4931191;28;20034;-74
2023/09/04 04:42:31;;;;;;;5.65;4.82;;;;;;;11.06;93.24;102800.44;4950034;28;20031;-76
2023/09/04 04:44:57;;;;;;;6.50;5.80;;;;;;;11.07;93.29;102804.75;4924826;28;20077;-77
2023/09/04 04:47:23;;;;;;;6.50;4.82;;;;;;;11.04;92.98;102805.19;4918422;28;20085;-75
2023/09/04 04:49:50;;;;;;;;;;;;;;;11.03;93.14;102808.91;4918871;28;20035;-75
2023/09/04 04:52:15;;;;;;;6.20;4.63;;;;;;;10.98;93.58;102812.28;4924298;28;19969;-77
2023/09/04 04:54:41;;;;;;;6.85;5.07;;;;;;;10.98;93.48;102809.59;4931124;28;20035;-76
2023/09/04 04:57:06;;;;;;;5.55;4.57;;;;;;;10.99;93.30;102808.56;4917076;28;20032;-75
2023/09/04 04:59:32;;;;;;;7.13;6.13;;;;;;;10.98;93.24;102809.59;4934084;28;20181;-76
2023/09/04 05:02:00;;;;;;;5.50;4.90;;;;;;;10.99;93.38;102805.06;4910503;28;20031;-77
2023/09/04 05:04:26;;;;;;;8.55;4.65;;;;;;;10.99;93.73;102810.41;4914284;28;20155;-76
2023/09/04 05:06:52;;;;;;;5.90;5.22;;;;;;;11.00;93.45;102820.91;4938776;28;20052;-77
2023/09/04 05:09:17;;;;;;;6.65;4.53;;;;;;;11.03;93.18;102815.09;4913991;28;20032;-76
2023/09/04 05:11:44;;;;;;;6.72;4.95;;;;;;;11.02;93.04;102813.47;4925457;28;20039;-76
2023/09/04 05:14:11;;;;;;;8.50;5.00;;;;;;;11.07;92.75;102823.53;4909143;28;20066;-76
2023/09/04 05:16:37;;;;;;;5.90;4.93;;;;;;;11.09;92.86;102818.75;4909782;28;20500;-77
2023/09/04 05:19:03;;;;;;;;;;;;;;;11.11;92.88;102819.38;4926829;28;20035;-76
2023/09/04 05:21:29;;;;;;;5.40;4.10;;;;;;;11.11;93.51;102817.50;4917822;28;20340;-77
2023/09/04 05:23:55;;;;;;;6.13;4.80;;;;;;;11.17;93.72;102813.91;4924079;28;20046;-76
2023/09/04 05:26:20;;;;;;;8.40;6.47;;;;;;;11.21;94.20;102825.84;4926370;28;20031;-74
2023/09/04 05:28:46;;;;;;;7.75;6.00;;;;;;;11.27;94.48;102823.31;4910639;28;20269;-75
2023/09/04 05:31:12;;;;;;;8.15;5.50;;;;;;;11.31;94.82;102825.34;4908444;28;20131;-75
2023/09/04 05:33:38;;;;;;;8.27;6.28;;;;;;;11.37;94.92;102829.78;4942828;28;20116;-75
2023/09/04 05:36:05;;;;;;;6.25;5.45;;;;;;;11.41;95.03;102820.25;4906305;28;20100;-75
2023/09/04 05:38:31;;;;;;;7.47;6.70;;;;;;;11.48;95.42;102826.34;4925035;28;20036;-75
2023/09/04 05:41:00;;;;;;;10.15;8.27;;;;;;;11.54;95.91;102838.06;4903640;28;20100;-75
2023/09/04 05:43:25;;;;;;;9.23;6.32;;;;;;;11.59;96.10;102835.53;4933509;28;20051;-76
2023/09/04 05:45:52;;;;;;;8.15;6.65;;;;;;;11.65;96.32;102834.63;4941833;28;20043;-75
2023/09/04 05:48:18;;;;;;;10.77;7.10;;;;;;;11.74;96.49;102840.50;4938707;28;20045;-75
2023/09/04 05:50:43;;;;;;;8.80;6.95;;;;;;;11.80;96.96;102839.59;4941249;28;20043;-75
2023/09/04 05:53:09;;;;;;;8.23;6.45;;;;;;;11.86;97.01;102840.59;4924862;28;20035;-75
2023/09/04 05:55:35;;;;;;;8.82;6.60;;;;;;;11.97;97.11;102850.53;4922344;28;20386;-75
2023/09/04 05:58:01;;;;;;;8.38;7.43;;;;;;;12.03;97.04;102853.13;4909543;28;20070;-75
2023/09/04 06:00:27;;;;;;;8.10;6.72;;;;;;;12.12;97.10;102850.94;4936531;28;20130;-76
2023/09/04 06:02:56;;;;;;;8.75;7.85;;;;;;;12.17;97.21;102861.84;4906009;28;20043;-75
2023/09/04 06:05:24;;;;;;;9.73;8.15;;;;;;;12.24;97.18;102859.88;4913273;28;20046;-75
2023/09/04 06:07:49;;;;;;;10.60;8.15;;;;;;;12.34;97.34;102859.31;4916788;28;20149;-75
2023/09/04 06:10:16;;;;;;;10.88;7.28;;;;;;;12.44;97.15;102858.75;4926480;28;20833;-74
2023/09/04 06:12:41;;;;;;;9.60;8.00;;;;;;;12.56;96.97;102855.03;4942007;28;20038;-74
2023/09/04 06:15:09;;;;;;;8.00;6.68;;;;;;;12.70;96.72;102861.03;4932849;28;20035;-73
2023/09/04 06:17:35;;;;;;;11.50;8.10;;;;;;;12.87;96.40;102849.56;4947281;28;20061;-76
2023/09/04 06:20:02;;;;;;;10.48;7.55;;;;;;;12.99;95.81;102842.31;4924888;28;20039;-74
2023/09/04 06:22:28;;;;;;;7.35;6.53;;;;;;;13.08;95.61;102840.94;4930709;28;20031;-76
2023/09/04 06:24:54;;;;;;;;;;;;;;;13.20;95.35;102844.44;4942855;28;20092;-75
2023/09/04 06:27:20;;;;;;;9.85;7.18;;;;;;;13.26;95.47;102851.56;4930430;28;19919;-75
2023/09/04 06:29:46;;;;;;;8.57;7.60;;;;;;;13.32;95.56;102850.63;4925592;28;20066;-77
2023/09/04 06:32:14;;;;;;;8.93;7.80;;;;;;;13.43;95.54;102850.84;4914422;28;20038;-74
2023/09/04 06:34:40;;;;;;;9.40;7.10;;;;;;;13.54;95.99;102850.81;4942865;28;20516;-77
2023/09/04 06:37:06;;;;;;;9.40;6.75;;;;;;;13.71;95.90;102848.19;4932012;28;20043;-76
2023/09/04 06:39:31;;;;;;;9.93;7.65;;;;;;;13.91;95.54;102856.69;4930695;28;20031;-73
2023/09/04 06:41:58;;;;;;;10.02;8.13;;;;;;;14.11;95.14;102850.03;4949488;28;20101;-74
2023/09/04 06:44:29;;;;;;;7.47;6.55;;;;;;;14.25;94.65;102851.38;4925652;28;20043;-75
2023/09/04 06:46:54;;;;;;;7.75;6.95;;;;;;;14.38;93.79;102861.84;4915689;28;20035;-73
2023/09/04 06:49:19;;;;;;;;;;;;;;;14.48;93.44;102856.63;4913600;28;20027;-73
2023/09/04 06:51:45;;;;;;;7.95;6.65;;;;;;;14.59;93.08;102862.22;4912333;28;19973;-74
2023/09/04 06:54:11;;;;;;;8.38;6.95;;;;;;;14.70;93.30;102867.53;4934599;28;20070;-72
2023/09/04 06:56:36;;;;;;;;;;;;;;;14.81;93.10;102863.09;4936667;28;20042;-74
2023/09/04 06:59:02;;;;;;;10.20;6.78;;;;;;;14.92;92.55;102864.06;4922495;28;19918;-73
2023/09/04 07:01:28;;;;;;;8.20;6.72;;;;;;;14.97;91.61;102864.97;4947922;28;20031;-75
2023/09/04 07:03:54;;;;;;;9.07;7.47;;;;;;;15.04;91.63;102872.91;4934574;28;20070;-75
2023/09/04 07:06:19;;;;;;;8.13;6.85;;;;;;;15.12;91.43;102863.56;5020393;28;20090;-74
2023/09/04 07:08:45;;;;;;;;;;;;;;;15.24;90.84;102869.63;4918148;28;20049;-72
2023/09/04 07:11:10;;;;;;;7.97;7.18;;;;;;;15.33;91.15;102857.38;4927586;28;20025;-75
2023/09/04 07:13:36;;;;;;;;;;;;;;;15.45;90.73;102870.75;4941909;28;20051;-72
2023/09/04 07:16:02;;;;;;;7.57;6.78;;;;;;;15.55;90.42;102862.78;4944847;28;19914;-75
2023/09/04 07:18:28;;;;;;;7.47;6.63;;;;;;;15.68;90.27;102861.59;4911752;28;20035;-77
2023/09/04 07:20:54;;;;;;;;;;;;;;;15.76;90.00;102869.25;4943276;28;20096;-74
2023/09/04 07:23:20;;;;;;;7.13;5.05;;;;;;;15.83;89.55;102867.19;4928325;28;20334;-73
2023/09/04 07:25:46;;;;;;;7.25;5.30;;;;;;;15.94;90.09;102860.00;4910273;28;20047;-73
2023/09/04 07:28:12;;;;;;;;;;;;;;;16.02;89.38;102868.47;4928571;28;20043;-77
2023/09/04 07:30:37;;;;;;;7.20;5.25;;;;;;;16.14;88.51;102870.22;4944080;28;20025;-76
2023/09/04 07:33:03;;;;;;;5.88;5.28;;;;;;;16.26;88.18;102868.19;4929258;28;20050;-74
2023/09/04 07:35:29;;;;;;;;;;;;;;;16.36;88.27;102868.25;4930238;28;20031;-76
2023/09/04 07:37:54;;;;;;;7.38;5.22;;;;;;;16.46;87.10;102868.38;4925009;28;20024;-78
2023/09/04 07:40:20;;;;;;;;;;;;;;;16.55;86.69;102866.81;4934589;28;20377;-75
2023/09/04 07:42:46;;;;;;;5.80;4.43;;;;;;;16.65;87.25;102868.75;4930787;28;20004;-77
2023/09/04 07:45:12;;;;;;;5.20;4.70;;;;;;;16.79;87.06;102863.75;4930062;28;20038;-76
2023/09/04 07:47:37;;;;;;;;;;;;;;;16.86;86.04;102869.75;4914283;28;20039;-75
2023/09/04 07:50:04;;;;;;;7.72;5.00;;;;;;;16.96;85.94;102874.44;4924642;28;19922;-76
2023/09/04 07:52:29;;;;;;;6.40;4.30;;;;;;;17.00;85.01;102873.66;4944355;28;20035;-78
2023/09/04 07:54:55;;;;;;;;;;;;;;;17.09;84.02;102874.78;4943080;28;20382;-79
2023/09/04 07:57:21;;;;;;;4.75;3.80;;;;;;;17.18;83.82;102870.50;4939039;28;19950;-75
2023/09/04 07:59:48;;;;;;;5.55;3.80;;;;;;;17.28;83.92;102871.66;4900521;28;20046;-73
2023/09/04 08:02:16;;;;;;;;;;;;;;;17.41;83.22;102871.19;4937133;28;20036;-77
2023/09/04 08:04:43;;;;;;;4.65;3.38;;;;;;;17.53;82.73;102869.03;4934264;28;19949;-75
2023/09/04 08:07:12;;;;;;;4.28;3.13;;;;;;;17.63;82.10;102866.41;4920137;28;20587;-73
2023/09/04 08:09:37;;;;;;;5.68;3.45;;;;;;;17.74;82.33;102861.84;4909872;28;20052;-76
2023/09/04 08:12:04;;;;;;;4.32;3.60;;;;;;;17.89;81.45;102863.78;4947288;28;20067;-77
2023/09/04 08:14:36;;;;;;;4.30;3.33;;;;;;;17.99;81.80;102861.09;4954592;28;20062;-74
2023/09/04 08:17:05;;;;;;;5.00;3.80;;;;;;;18.07;81.07;102857.03;4961846;28;20033;-76
2023/09/04 08:19:30;;;;;;;6.80;3.40;;;;;;;18.14;80.98;102868.44;4940616;28;20046;-76
2023/09/04 08:21:59;;;;;;;4.43;3.70;;;;;;;18.17;80.15;102863.31;4954585;28;20035;-73
2023/09/04 08:24:25;;;;;;;5.38;3.08;;;;;;;18.32;79.11;102869.81;4932108;28;20484;-73
2023/09/04 08:26:52;;;;;;;5.43;3.33;;;;;;;18.42;79.28;102869.81;4920549;28;20042;-73
2023/09/04 08:29:18;;;;;;;5.38;3.58;;;;;;;18.48;78.21;102863.31;4948093;28;20041;-72
2023/09/04 08:31:45;;;;;;;7.32;2.95;;;;;;;18.59;78.19;102859.50;4940587;28;20069;-73
2023/09/04 08:34:10;;;;;;;4.80;3.25;;;;;;;18.65;77.45;102863.84;4929740;28;20039;-73
2023/09/04 08:36:36;;;;;;;4.95;3.17;;;;;;;18.72;75.92;102863.63;4916265;28;20043;-73
2023/09/04 08:39:02;;;;;;;4.72;4.05;;;;;;;18.79;76.54;102864.16;4919288;28;20049;-77
2023/09/04 08:41:30;;;;;;;3.40;3.10;;;;;;;18.89;77.01;102874.16;4930253;28;20786;-77
2023/09/04 08:43:56;;;;;;;3.40;2.72;;;;;;;19.02;75.34;102860.03;4945061;28;20063;-77
2023/09/04 08:46:23;;;;;;;5.85;3.13;;;;;;;19.10;76.18;102859.44;4945661;28;20035;-75
2023/09/04 08:48:51;;;;;;;5.55;3.55;;;;;;;19.19;75.09;102862.44;4897329;28;20043;-76
2023/09/04 08:51:17;;;;;;;4.75;2.88;;;;;;;19.18;73.52;102867.06;4927193;28;20508;-76
2023/09/04 08:53:43;;;;;;;3.83;2.90;;;;;;;19.21;75.19;102852.09;4930875;28;20450;-78
2023/09/04 08:56:09;;;;;;;3.30;2.40;;;;;;;19.32;75.32;102857.22;4945191;28;20047;-77
2023/09/04 08:58:35;;;;;;;3.33;2.83;;;;;;;19.41;73.30;102859.38;4928997;28;20085;-78
2023/09/04 09:01:04;;;;;;;3.63;2.55;;;;;;;19.46;71.05;102848.47;4945495;28;20084;-76
2023/09/04 09:03:30;;;;;;;3.42;2.05;;;;;;;19.55;72.06;102852.22;4934799;28;20031;-77
2023/09/04 09:05:57;;;;;;;2.53;1.92;;;;;;;19.66;72.08;102851.13;4928504;28;20077;-74
2023/09/04 09:08:24;;;;;;;3.50;2.20;;;;;;;19.72;71.01;102854.63;4918809;28;20031;-74
2023/09/04 09:10:49;;;;;;;3.20;1.88;;;;;;;19.73;72.55;102851.63;4929250;28;20035;-75
2023/09/04 09:13:15;;;;;;;3.97;1.83;;;;;;;19.75;69.56;102856.78;4929072;28;20365;-74
2023/09/04 09:15:42;;;;;;;5.75;1.83;;;;;;;19.86;68.84;102861.91;4915777;28;20031;-77
2023/09/04 09:18:08;;;;;;;2.80;1.88;;;;;;;19.90;67.41;102851.25;4928712;28;20398;-74
2023/09/04 09:20:42;;;;;;;2.75;1.70;;;;;;;20.00;67.06;102858.53;4914454;28;20046;-75
2023/09/04 09:23:09;;;;;;;3.30;1.95;;;;;;;20.11;67.66;102857.38;4928319;28;20087;-77
2023/09/04 09:26:00;;;;;;;3.92;2.33;;;;;;;20.20;64.00;102857.59;4928788;23;20043;-76
2023/09/04 09:28:25;;;;;;;4.45;1.95;;;;;;;20.24;64.51;102850.47;4913155;28;20051;-77
2023/09/04 09:30:54;;;;;;;1.88;1.30;;;;;;;20.21;65.00;102851.88;4933173;28;20046;-76
2023/09/04 09:33:21;;;;;;;3.13;1.98;;;;;;;20.26;63.42;102846.41;4910592;28;20031;-78
2023/09/04 09:35:46;;;;;;;2.97;1.92;;;;;;;20.19;64.04;102848.63;4942698;28;20041;-76
2023/09/04 09:38:12;;;;;;;2.10;1.67;;;;;;;20.27;65.59;102837.13;4960942;28;20039;-76
2023/09/04 09:40:37;;;;;;;2.67;1.80;;;;;;;20.31;64.32;102840.88;4944935;28;20054;-77
2023/09/04 09:43:07;;;;;;;5.65;1.98;;;;;;;20.40;63.86;102838.38;4959519;28;20043;-77
2023/09/04 09:45:33;;;;;;;2.55;1.60;;;;;;;20.48;64.94;102839.72;4929908;28;20062;-76
2023/09/04 09:48:07;;;;;;;2.53;1.90;;;;;;;20.60;64.88;102842.88;4928992;28;20566;-77
2023/09/04 09:50:36;;;;;;;2.83;1.60;;;;;;;20.61;65.02;102833.59;4940708;28;20283;-77
2023/09/04 09:53:02;;;;;;;2.88;1.60;;;;;;;20.72;62.64;102835.09;4943099;28;20027;-78
2023/09/04 09:55:31;;;;;;;2.00;1.50;;;;;;;20.71;61.97;102833.50;4942573;28;20117;-76
2023/09/04 09:57:58;;;;;;;3.70;1.77;;;;;;;20.81;61.09;102827.16;4909050;28;20189;-78
2023/09/04 10:00:26;;;;;;;4.22;1.17;;;;;;;20.83;59.67;102823.03;4946884;28;20148;-78
2023/09/04 10:02:54;;;;;;;2.58;1.35;;;;;;;20.93;57.12;102831.09;4939927;28;20047;-77
2023/09/04 10:05:25;;;;;;;1.70;1.40;;;;;;;20.96;58.09;102819.63;4943497;28;20570;-78
2023/09/04 10:08:01;;;;;;;2.05;1.20;;;;;;;21.06;60.40;102818.66;4958434;28;20413;-77
2023/09/04 10:10:30;;;;;;;2.10;1.40;;;;;;;21.16;60.54;102817.75;4939510;28;20038;-78
2023/09/04 10:13:30;;;;;;;3.17;1.65;;;;;;;21.25;58.81;102810.53;4942507;28;20043;-78
2023/09/04 10:16:03;;;;;;;3.63;1.45;;;;;;;21.32;58.32;102805.56;4901838;28;20043;-76
2023/09/04 10:18:31;;;;;;;2.40;1.40;;;;;;;21.36;59.10;102790.28;4943517;28;20043;-78
2023/09/04 10:20:59;;;;;;;2.92;1.35;;;;;;;21.42;59.29;102791.03;4943649;28;20035;-77
2023/09/04 10:23:34;;;;;;;2.15;1.50;;;;;;;21.45;59.03;102799.41;4939902;28;20495;-77
2023/09/04 10:26:19;;;;;;;3.63;1.80;;;;;;;21.57;59.03;102798.16;4962368;28;20078;-76
2023/09/04 10:28:55;;;;;;;1.90;1.38;;;;;;;21.50;57.85;102801.25;4945945;28;20035;-78
2023/09/04 10:31:24;;;;;;;5.40;1.80;;;;;;;21.55;57.50;102797.66;4928352;28;20032;-81
2023/09/04 10:33:51;;;;;;;1.90;1.30;;;;;;;21.64;59.24;102798.63;4952750;28;20079;-79
2023/09/04 10:36:19;;;;;;;2.15;1.40;;;;;;;21.68;58.06;102802.38;4966534;28;20041;-79
2023/09/04 10:38:48;;;;;;;2.53;1.40;;;;;;;21.76;57.71;102799.00;4919053;28;20355;-77
2023/09/04 10:41:15;;;;;;;2.40;1.40;;;;;;;21.80;57.49;102791.81;4942163;28;20535;-80
2023/09/04 10:43:44;;;;;;;1.83;1.20;;;;;;;21.89;56.74;102792.78;4930832;28;20597;-77
2023/09/04 10:46:12;;;;;;;2.47;1.50;;;;;;;21.97;59.21;102794.03;4943206;28;20086;-78
2023/09/04 10:48:49;;;;;;;2.05;1.42;;;;;;;22.02;56.00;102785.78;5021708;28;20057;-78
2023/09/04 10:51:32;;;;;;;2.65;1.70;;;;;;;22.08;56.93;102781.81;4940238;28;20036;-82
2023/09/04 10:54:06;;;;;;;2.00;1.48;;;;;;;22.15;58.40;102781.47;4927146;28;20109;-84
2023/09/04 10:56:58;;;;;;;1.80;1.20;;;;;;;22.20;56.91;102775.94;4933738;28;20480;-86
2023/09/04 10:59:25;;;;;;;1.75;1.30;;;;;;;22.29;57.37;102772.22;4966113;28;20112;-86
2023/09/04 11:01:51;;;;;;;2.35;1.20;;;;;;;22.39;56.38;102779.41;4971703;28;20055;-82
2023/09/04 11:04:29;;;;;;;2.90;1.20;;;;;;;22.50;55.40;102777.31;4946435;28;21690;-87
2023/09/04 11:07:20;;;;;;;2.83;1.20;;;;;;;22.52;53.84;102766.91;4919590;28;20043;-83
2023/09/04 11:10:18;;;;;;;2.67;1.50;;;;;;;22.56;56.95;102768.75;4970106;28;20047;-84
2023/09/04 11:12:45;;;;;;;1.52;1.05;;;;;;;22.67;56.93;102766.59;4926291;28;20096;-85
2023/09/04 11:15:12;;;;;;;2.38;1.40;;;;;;;22.70;56.80;102784.31;4961768;28;20048;-86
2023/09/04 11:17:40;;;;;;;5.15;1.90;;;;;;;22.70;55.94;102776.13;4935150;28;20039;-83
2023/09/04 11:20:06;;;;;;;2.20;1.48;;;;;;;22.71;56.40;102758.63;4938225;28;20146;-85
2023/09/04 11:22:34;;;;;;;2.95;1.40;;;;;;;22.74;57.11;102760.75;4919251;28;20058;-83
2023/09/04 11:25:00;;;;;;;2.03;1.40;;;;;;;22.73;54.72;102759.13;4965488;28;20490;-85
2023/09/04 11:27:27;;;;;;;2.17;1.20;;;;;;;22.81;55.50;102770.16;4977698;28;20035;-82
2023/09/04 11:29:53;;;;;;;1.95;1.25;;;;;;;22.85;55.59;102764.91;4941914;28;20058;-81